sensor_id;sensor_type;location;lat;lon;timestamp;temperature;humidity
947;DHT22;460;48.734;9.152;2022-12-07T00:02:26;3.50;99.90
947;DHT22;460;48.734;9.152;2022-12-07T00:04:54;3.40;99.90
947;DHT22;460;48.734;9.152;2022-12-07T00:07:21;3.50;99.90
947;DHT22;460;48.734;9.152;2022-12-07T00:09:48;3.40;99.90
947;DHT22;460;48.734;9.152;2022-12-07T00:12:15;3.40;99.90
947;DHT22;460;48.734;9.152;2022-12-07T00:14:41;3.50;99.90
947;DHT22;460;48.734;9.152;2022-12-07T00:17:08;3.60;99.90
947;DHT22;460;48.734;9.152;2022-12-07T00:19:35;3.50;99.90
947;DHT22;460;48.734;9.152;2022-12-07T00:22:03;3.50;99.90
947;DHT22;460;48.734;9.152;2022-12-07T00:24:30;3.50;99.90
947;DHT22;460;48.734;9.152;2022-12-07T00:26:57;3.50;99.90
947;DHT22;460;48.734;9.152;2022-12-07T00:29:24;3.50;99.90
947;DHT22;460;48.734;9.152;2022-12-07T00:31:51;3.50;99.90
947;DHT22;460;48.734;9.152;2022-12-07T00:34:19;3.50;99.90
947;DHT22;460;48.734;9.152;2022-12-07T00:36:46;3.50;99.90
947;DHT22;460;48.734;9.152;2022-12-07T00:39:14;3.40;99.90
947;DHT22;460;48.734;9.152;2022-12-07T00:41:41;3.30;99.90
947;DHT22;460;48.734;9.152;2022-12-07T00:44:08;3.30;99.90
947;DHT22;460;48.734;9.152;2022-12-07T00:46:35;3.40;99.90
947;DHT22;460;48.734;9.152;2022-12-07T00:49:02;3.30;99.90
947;DHT22;460;48.734;9.152;2022-12-07T00:51:28;3.40;99.90
947;DHT22;460;48.734;9.152;2022-12-07T00:53:55;3.40;99.90
947;DHT22;460;48.734;9.152;2022-12-07T00:56:25;3.40;99.90
947;DHT22;460;48.734;9.152;2022-12-07T00:58:53;3.40;99.90
947;DHT22;460;48.734;9.152;2022-12-07T01:01:21;3.30;99.90
947;DHT22;460;48.734;9.152;2022-12-07T01:03:48;3.30;99.90
947;DHT22;460;48.734;9.152;2022-12-07T01:06:16;3.40;99.90
947;DHT22;460;48.734;9.152;2022-12-07T01:08:43;3.40;99.90
947;DHT22;460;48.734;9.152;2022-12-07T01:11:13;3.30;99.90
947;DHT22;460;48.734;9.152;2022-12-07T01:13:42;3.30;99.90
947;DHT22;460;48.734;9.152;2022-12-07T01:16:12;3.30;99.90
947;DHT22;460;48.734;9.152;2022-12-07T01:18:39;3.20;99.90
947;DHT22;460;48.734;9.152;2022-12-07T01:21:07;3.20;99.90
947;DHT22;460;48.734;9.152;2022-12-07T01:23:35;3.20;99.90
947;DHT22;460;48.734;9.152;2022-12-07T01:26:04;3.20;99.90
947;DHT22;460;48.734;9.152;2022-12-07T01:28:32;3.30;99.90
947;DHT22;460;48.734;9.152;2022-12-07T01:31:02;3.30;99.90
947;DHT22;460;48.734;9.152;2022-12-07T01:33:31;3.30;99.90
947;DHT22;460;48.734;9.152;2022-12-07T01:36:02;3.20;99.90
947;DHT22;460;48.734;9.152;2022-12-07T01:38:30;3.30;99.90
947;DHT22;460;48.734;9.152;2022-12-07T01:40:58;3.30;99.90
947;DHT22;460;48.734;9.152;2022-12-07T01:43:27;3.20;99.90
947;DHT22;460;48.734;9.152;2022-12-07T01:45:55;3.20;99.90
947;DHT22;460;48.734;9.152;2022-12-07T01:48:27;3.20;99.90
947;DHT22;460;48.734;9.152;2022-12-07T01:50:56;3.20;99.90
947;DHT22;460;48.734;9.152;2022-12-07T01:53:26;3.30;99.90
947;DHT22;460;48.734;9.152;2022-12-07T01:55:56;3.30;99.90
947;DHT22;460;48.734;9.152;2022-12-07T01:58:25;3.20;99.90
947;DHT22;460;48.734;9.152;2022-12-07T02:00:52;3.20;99.90
947;DHT22;460;48.734;9.152;2022-12-07T02:03:24;3.10;99.90
947;DHT22;460;48.734;9.152;2022-12-07T02:05:54;3.20;99.90
947;DHT22;460;48.734;9.152;2022-12-07T02:08:22;3.00;99.90
947;DHT22;460;48.734;9.152;2022-12-07T02:10:50;3.00;99.90
947;DHT22;460;48.734;9.152;2022-12-07T02:13:21;3.10;99.90
947;DHT22;460;48.734;9.152;2022-12-07T02:16:04;3.10;99.90
947;DHT22;460;48.734;9.152;2022-12-07T02:18:48;3.10;99.90
947;DHT22;460;48.734;9.152;2022-12-07T02:21:22;3.10;99.90
947;DHT22;460;48.734;9.152;2022-12-07T02:24:08;3.10;99.90
947;DHT22;460;48.734;9.152;2022-12-07T02:29:45;3.20;99.90
947;DHT22;460;48.734;9.152;2022-12-07T02:32:17;3.10;99.90
947;DHT22;460;48.734;9.152;2022-12-07T02:34:50;3.10;99.90
947;DHT22;460;48.734;9.152;2022-12-07T02:37:32;3.10;99.90
947;DHT22;460;48.734;9.152;2022-12-07T02:40:08;3.20;99.90
947;DHT22;460;48.734;9.152;2022-12-07T02:42:41;3.20;99.90
947;DHT22;460;48.734;9.152;2022-12-07T02:45:14;3.20;99.90
947;DHT22;460;48.734;9.152;2022-12-07T02:47:43;3.40;99.90
947;DHT22;460;48.734;9.152;2022-12-07T02:50:13;3.20;99.90
947;DHT22;460;48.734;9.152;2022-12-07T02:52:41;3.10;99.90
947;DHT22;460;48.734;9.152;2022-12-07T02:55:09;3.30;99.90
947;DHT22;460;48.734;9.152;2022-12-07T02:57:53;3.10;99.90
947;DHT22;460;48.734;9.152;2022-12-07T03:00:24;3.10;99.90
947;DHT22;460;48.734;9.152;2022-12-07T03:02:55;3.10;99.90
947;DHT22;460;48.734;9.152;2022-12-07T03:05:36;3.20;99.90
947;DHT22;460;48.734;9.152;2022-12-07T03:08:15;3.20;99.90
947;DHT22;460;48.734;9.152;2022-12-07T03:10:52;3.20;99.90
947;DHT22;460;48.734;9.152;2022-12-07T03:13:25;3.10;99.90
947;DHT22;460;48.734;9.152;2022-12-07T03:16:02;3.20;99.90
947;DHT22;460;48.734;9.152;2022-12-07T03:18:36;3.10;99.90
947;DHT22;460;48.734;9.152;2022-12-07T03:21:09;3.10;99.90
947;DHT22;460;48.734;9.152;2022-12-07T03:23:41;3.00;99.90
947;DHT22;460;48.734;9.152;2022-12-07T03:26:12;3.10;99.90
947;DHT22;460;48.734;9.152;2022-12-07T03:28:45;3.10;99.90
947;DHT22;460;48.734;9.152;2022-12-07T03:31:19;3.00;99.90
947;DHT22;460;48.734;9.152;2022-12-07T03:33:56;3.00;99.90
947;DHT22;460;48.734;9.152;2022-12-07T03:36:30;2.90;99.90
947;DHT22;460;48.734;9.152;2022-12-07T03:39:04;3.00;99.90
947;DHT22;460;48.734;9.152;2022-12-07T03:41:39;3.00;99.90
947;DHT22;460;48.734;9.152;2022-12-07T03:44:08;3.00;99.90
947;DHT22;460;48.734;9.152;2022-12-07T03:46:44;3.00;99.90
947;DHT22;460;48.734;9.152;2022-12-07T03:49:18;3.00;99.90
947;DHT22;460;48.734;9.152;2022-12-07T03:51:54;3.00;99.90
947;DHT22;460;48.734;9.152;2022-12-07T03:54:26;3.00;99.90
947;DHT22;460;48.734;9.152;2022-12-07T03:56:56;3.00;99.90
947;DHT22;460;48.734;9.152;2022-12-07T03:59:25;3.00;99.90
947;DHT22;460;48.734;9.152;2022-12-07T04:01:56;2.90;99.90
947;DHT22;460;48.734;9.152;2022-12-07T04:04:24;2.90;99.90
947;DHT22;460;48.734;9.152;2022-12-07T04:06:53;3.00;99.90
947;DHT22;460;48.734;9.152;2022-12-07T04:09:21;3.00;99.90
947;DHT22;460;48.734;9.152;2022-12-07T04:11:49;3.00;99.90
947;DHT22;460;48.734;9.152;2022-12-07T04:14:16;3.00;99.90
947;DHT22;460;48.734;9.152;2022-12-07T04:16:46;3.00;99.90
947;DHT22;460;48.734;9.152;2022-12-07T04:19:15;3.00;99.90
947;DHT22;460;48.734;9.152;2022-12-07T04:21:42;3.10;99.90
947;DHT22;460;48.734;9.152;2022-12-07T04:24:10;3.00;99.90
947;DHT22;460;48.734;9.152;2022-12-07T04:26:37;3.00;99.90
947;DHT22;460;48.734;9.152;2022-12-07T04:29:04;3.00;99.90
947;DHT22;460;48.734;9.152;2022-12-07T04:31:31;2.90;99.90
947;DHT22;460;48.734;9.152;2022-12-07T04:33:58;2.90;99.90
947;DHT22;460;48.734;9.152;2022-12-07T04:36:26;2.90;99.90
947;DHT22;460;48.734;9.152;2022-12-07T04:38:53;2.90;99.90
947;DHT22;460;48.734;9.152;2022-12-07T04:41:20;2.90;99.90
947;DHT22;460;48.734;9.152;2022-12-07T04:43:52;3.00;99.90
947;DHT22;460;48.734;9.152;2022-12-07T04:46:19;2.80;99.90
947;DHT22;460;48.734;9.152;2022-12-07T04:48:46;2.80;99.90
947;DHT22;460;48.734;9.152;2022-12-07T04:51:19;2.80;99.90
947;DHT22;460;48.734;9.152;2022-12-07T04:53:48;2.80;99.90
947;DHT22;460;48.734;9.152;2022-12-07T04:56:15;3.20;99.90
947;DHT22;460;48.734;9.152;2022-12-07T04:58:43;2.70;99.90
947;DHT22;460;48.734;9.152;2022-12-07T05:01:11;2.80;99.90
947;DHT22;460;48.734;9.152;2022-12-07T05:03:38;2.90;99.90
947;DHT22;460;48.734;9.152;2022-12-07T05:06:05;2.90;99.90
947;DHT22;460;48.734;9.152;2022-12-07T05:08:33;3.00;99.90
947;DHT22;460;48.734;9.152;2022-12-07T05:11:02;3.00;99.90
947;DHT22;460;48.734;9.152;2022-12-07T05:13:29;3.00;99.90
947;DHT22;460;48.734;9.152;2022-12-07T05:15:56;2.90;99.90
947;DHT22;460;48.734;9.152;2022-12-07T05:18:23;3.00;99.90
947;DHT22;460;48.734;9.152;2022-12-07T05:20:50;3.00;99.90
947;DHT22;460;48.734;9.152;2022-12-07T05:23:17;3.00;99.90
947;DHT22;460;48.734;9.152;2022-12-07T05:25:44;2.90;99.90
947;DHT22;460;48.734;9.152;2022-12-07T05:28:12;2.90;99.90
947;DHT22;460;48.734;9.152;2022-12-07T05:30:39;3.10;99.90
947;DHT22;460;48.734;9.152;2022-12-07T05:33:06;2.80;99.90
947;DHT22;460;48.734;9.152;2022-12-07T05:35:33;2.80;99.90
947;DHT22;460;48.734;9.152;2022-12-07T05:38:00;2.80;99.90
947;DHT22;460;48.734;9.152;2022-12-07T05:40:27;2.70;99.90
947;DHT22;460;48.734;9.152;2022-12-07T05:42:53;2.60;99.90
947;DHT22;460;48.734;9.152;2022-12-07T05:45:22;2.50;99.90
947;DHT22;460;48.734;9.152;2022-12-07T05:47:51;2.30;99.90
947;DHT22;460;48.734;9.152;2022-12-07T05:50:18;2.30;99.90
947;DHT22;460;48.734;9.152;2022-12-07T05:52:45;2.40;99.90
947;DHT22;460;48.734;9.152;2022-12-07T05:55:12;2.30;99.90
947;DHT22;460;48.734;9.152;2022-12-07T05:57:39;2.30;99.90
947;DHT22;460;48.734;9.152;2022-12-07T06:00:27;2.30;99.90
947;DHT22;460;48.734;9.152;2022-12-07T06:02:53;2.30;99.90
947;DHT22;460;48.734;9.152;2022-12-07T06:05:19;2.30;99.90
947;DHT22;460;48.734;9.152;2022-12-07T06:07:46;2.20;99.90
947;DHT22;460;48.734;9.152;2022-12-07T06:10:13;2.40;99.90
947;DHT22;460;48.734;9.152;2022-12-07T06:12:40;2.20;99.90
947;DHT22;460;48.734;9.152;2022-12-07T06:15:09;2.30;99.90
947;DHT22;460;48.734;9.152;2022-12-07T06:17:40;2.30;99.90
947;DHT22;460;48.734;9.152;2022-12-07T06:20:07;2.30;99.90
947;DHT22;460;48.734;9.152;2022-12-07T06:22:34;2.20;99.90
947;DHT22;460;48.734;9.152;2022-12-07T06:25:01;2.30;99.90
947;DHT22;460;48.734;9.152;2022-12-07T06:27:29;2.30;99.90
947;DHT22;460;48.734;9.152;2022-12-07T06:29:56;2.30;99.90
947;DHT22;460;48.734;9.152;2022-12-07T06:32:23;2.30;99.90
947;DHT22;460;48.734;9.152;2022-12-07T06:34:51;2.30;99.90
947;DHT22;460;48.734;9.152;2022-12-07T06:37:18;2.10;99.90
947;DHT22;460;48.734;9.152;2022-12-07T06:39:45;2.10;99.90
947;DHT22;460;48.734;9.152;2022-12-07T06:42:12;2.10;99.90
947;DHT22;460;48.734;9.152;2022-12-07T06:44:38;2.20;99.90
947;DHT22;460;48.734;9.152;2022-12-07T06:47:05;2.20;99.90
947;DHT22;460;48.734;9.152;2022-12-07T06:49:33;2.20;99.90
947;DHT22;460;48.734;9.152;2022-12-07T06:52:01;2.30;99.90
947;DHT22;460;48.734;9.152;2022-12-07T06:54:28;2.30;99.90
947;DHT22;460;48.734;9.152;2022-12-07T06:56:55;2.30;99.90
947;DHT22;460;48.734;9.152;2022-12-07T06:59:22;2.30;99.90
947;DHT22;460;48.734;9.152;2022-12-07T07:01:49;2.30;99.90
947;DHT22;460;48.734;9.152;2022-12-07T07:04:16;2.30;99.90
947;DHT22;460;48.734;9.152;2022-12-07T07:06:42;2.30;99.90
947;DHT22;460;48.734;9.152;2022-12-07T07:09:11;2.40;99.90
947;DHT22;460;48.734;9.152;2022-12-07T07:11:37;2.60;99.90
947;DHT22;460;48.734;9.152;2022-12-07T07:14:04;2.40;99.90
947;DHT22;460;48.734;9.152;2022-12-07T07:16:31;2.60;99.90
947;DHT22;460;48.734;9.152;2022-12-07T07:18:58;2.70;99.90
947;DHT22;460;48.734;9.152;2022-12-07T07:21:25;2.70;99.90
947;DHT22;460;48.734;9.152;2022-12-07T07:23:52;2.70;99.90
947;DHT22;460;48.734;9.152;2022-12-07T07:26:20;2.60;99.90
947;DHT22;460;48.734;9.152;2022-12-07T07:28:46;2.70;99.90
947;DHT22;460;48.734;9.152;2022-12-07T07:31:13;2.70;99.90
947;DHT22;460;48.734;9.152;2022-12-07T07:33:40;2.70;99.90
947;DHT22;460;48.734;9.152;2022-12-07T07:36:07;2.70;99.90
947;DHT22;460;48.734;9.152;2022-12-07T07:38:34;2.80;99.90
947;DHT22;460;48.734;9.152;2022-12-07T07:41:01;3.00;99.90
947;DHT22;460;48.734;9.152;2022-12-07T07:43:29;2.80;99.90
947;DHT22;460;48.734;9.152;2022-12-07T07:45:56;2.80;99.90
947;DHT22;460;48.734;9.152;2022-12-07T07:48:23;2.80;99.90
947;DHT22;460;48.734;9.152;2022-12-07T07:50:50;2.80;99.90
947;DHT22;460;48.734;9.152;2022-12-07T07:53:17;2.80;99.90
947;DHT22;460;48.734;9.152;2022-12-07T07:55:50;2.80;99.90
947;DHT22;460;48.734;9.152;2022-12-07T07:58:18;2.80;99.90
947;DHT22;460;48.734;9.152;2022-12-07T08:00:46;2.80;99.90
947;DHT22;460;48.734;9.152;2022-12-07T08:03:13;2.80;99.90
947;DHT22;460;48.734;9.152;2022-12-07T08:05:40;2.80;99.90
947;DHT22;460;48.734;9.152;2022-12-07T08:08:07;2.90;99.90
947;DHT22;460;48.734;9.152;2022-12-07T08:10:34;2.80;99.90
947;DHT22;460;48.734;9.152;2022-12-07T08:13:02;2.90;99.90
947;DHT22;460;48.734;9.152;2022-12-07T08:15:40;2.90;99.90
947;DHT22;460;48.734;9.152;2022-12-07T08:18:08;2.90;99.90
947;DHT22;460;48.734;9.152;2022-12-07T08:20:36;3.00;99.90
947;DHT22;460;48.734;9.152;2022-12-07T08:23:04;3.00;99.90
947;DHT22;460;48.734;9.152;2022-12-07T08:25:31;3.10;99.90
947;DHT22;460;48.734;9.152;2022-12-07T08:27:59;3.10;99.90
947;DHT22;460;48.734;9.152;2022-12-07T08:30:28;3.20;99.90
947;DHT22;460;48.734;9.152;2022-12-07T08:32:55;3.20;99.90
947;DHT22;460;48.734;9.152;2022-12-07T08:35:24;3.20;99.90
947;DHT22;460;48.734;9.152;2022-12-07T08:37:51;3.20;99.90
947;DHT22;460;48.734;9.152;2022-12-07T08:40:18;3.30;99.90
947;DHT22;460;48.734;9.152;2022-12-07T08:42:48;3.20;99.90
947;DHT22;460;48.734;9.152;2022-12-07T08:45:16;3.30;99.90
947;DHT22;460;48.734;9.152;2022-12-07T08:47:47;3.40;99.90
947;DHT22;460;48.734;9.152;2022-12-07T08:50:16;3.60;99.90
947;DHT22;460;48.734;9.152;2022-12-07T08:52:48;3.50;99.90
947;DHT22;460;48.734;9.152;2022-12-07T08:55:17;3.50;99.90
947;DHT22;460;48.734;9.152;2022-12-07T08:57:44;3.50;99.90
947;DHT22;460;48.734;9.152;2022-12-07T09:00:12;3.60;99.90
947;DHT22;460;48.734;9.152;2022-12-07T09:02:39;3.60;99.90
947;DHT22;460;48.734;9.152;2022-12-07T09:05:07;3.60;99.90
947;DHT22;460;48.734;9.152;2022-12-07T09:07:34;3.60;99.90
947;DHT22;460;48.734;9.152;2022-12-07T09:10:03;3.60;99.90
947;DHT22;460;48.734;9.152;2022-12-07T09:12:30;3.70;99.90
947;DHT22;460;48.734;9.152;2022-12-07T09:14:56;3.70;99.90
947;DHT22;460;48.734;9.152;2022-12-07T09:17:23;3.60;99.80
947;DHT22;460;48.734;9.152;2022-12-07T09:19:50;3.70;99.90
947;DHT22;460;48.734;9.152;2022-12-07T09:22:17;3.70;99.90
947;DHT22;460;48.734;9.152;2022-12-07T09:24:44;3.60;99.90
947;DHT22;460;48.734;9.152;2022-12-07T09:27:12;3.70;99.90
947;DHT22;460;48.734;9.152;2022-12-07T09:29:39;3.70;99.20
947;DHT22;460;48.734;9.152;2022-12-07T09:32:06;3.70;98.70
947;DHT22;460;48.734;9.152;2022-12-07T09:34:33;3.60;98.30
947;DHT22;460;48.734;9.152;2022-12-07T09:37:01;3.80;99.10
947;DHT22;460;48.734;9.152;2022-12-07T09:39:29;3.90;99.40
947;DHT22;460;48.734;9.152;2022-12-07T09:41:57;3.90;99.00
947;DHT22;460;48.734;9.152;2022-12-07T09:44:27;3.90;98.40
947;DHT22;460;48.734;9.152;2022-12-07T09:46:54;3.90;98.90
947;DHT22;460;48.734;9.152;2022-12-07T09:49:23;4.00;97.80
947;DHT22;460;48.734;9.152;2022-12-07T09:52:00;3.90;98.10
947;DHT22;460;48.734;9.152;2022-12-07T09:54:28;3.90;98.20
947;DHT22;460;48.734;9.152;2022-12-07T09:56:55;4.00;98.30
947;DHT22;460;48.734;9.152;2022-12-07T09:59:22;4.10;98.50
947;DHT22;460;48.734;9.152;2022-12-07T10:01:50;4.10;98.40
947;DHT22;460;48.734;9.152;2022-12-07T10:04:18;4.20;98.40
947;DHT22;460;48.734;9.152;2022-12-07T10:06:46;4.30;98.20
947;DHT22;460;48.734;9.152;2022-12-07T10:09:18;4.30;98.50
947;DHT22;460;48.734;9.152;2022-12-07T10:12:02;4.50;98.30
947;DHT22;460;48.734;9.152;2022-12-07T10:14:31;4.30;98.00
947;DHT22;460;48.734;9.152;2022-12-07T10:17:00;4.30;98.20
947;DHT22;460;48.734;9.152;2022-12-07T10:19:29;4.40;98.40
947;DHT22;460;48.734;9.152;2022-12-07T10:22:02;4.40;98.10
947;DHT22;460;48.734;9.152;2022-12-07T10:24:29;4.30;97.40
947;DHT22;460;48.734;9.152;2022-12-07T10:26:56;4.40;97.70
947;DHT22;460;48.734;9.152;2022-12-07T10:29:28;4.50;97.80
947;DHT22;460;48.734;9.152;2022-12-07T10:31:57;4.50;98.00
947;DHT22;460;48.734;9.152;2022-12-07T10:34:28;4.50;97.70
947;DHT22;460;48.734;9.152;2022-12-07T10:37:15;4.60;97.90
947;DHT22;460;48.734;9.152;2022-12-07T10:39:43;4.60;97.90
947;DHT22;460;48.734;9.152;2022-12-07T10:42:17;4.60;98.10
947;DHT22;460;48.734;9.152;2022-12-07T10:44:44;4.60;97.60
947;DHT22;460;48.734;9.152;2022-12-07T10:47:19;4.70;98.50
947;DHT22;460;48.734;9.152;2022-12-07T10:50:08;4.60;98.00
947;DHT22;460;48.734;9.152;2022-12-07T10:52:58;4.70;98.10
947;DHT22;460;48.734;9.152;2022-12-07T10:55:41;4.50;97.70
947;DHT22;460;48.734;9.152;2022-12-07T10:58:28;4.50;98.00
947;DHT22;460;48.734;9.152;2022-12-07T11:01:04;4.30;98.00
947;DHT22;460;48.734;9.152;2022-12-07T11:04:14;4.30;97.70
947;DHT22;460;48.734;9.152;2022-12-07T11:06:49;4.40;98.30
947;DHT22;460;48.734;9.152;2022-12-07T11:09:43;4.50;97.80
947;DHT22;460;48.734;9.152;2022-12-07T11:12:16;4.50;98.00
947;DHT22;460;48.734;9.152;2022-12-07T11:14:54;4.60;97.80
947;DHT22;460;48.734;9.152;2022-12-07T11:17:28;4.60;97.40
947;DHT22;460;48.734;9.152;2022-12-07T11:20:05;4.60;97.30
947;DHT22;460;48.734;9.152;2022-12-07T11:22:43;4.60;97.30
947;DHT22;460;48.734;9.152;2022-12-07T11:25:23;4.70;97.60
947;DHT22;460;48.734;9.152;2022-12-07T11:28:06;4.60;97.20
947;DHT22;460;48.734;9.152;2022-12-07T11:30:45;4.70;98.00
947;DHT22;460;48.734;9.152;2022-12-07T11:33:18;4.80;98.00
947;DHT22;460;48.734;9.152;2022-12-07T11:35:57;4.70;97.20
947;DHT22;460;48.734;9.152;2022-12-07T11:38:37;4.70;97.90
947;DHT22;460;48.734;9.152;2022-12-07T11:41:09;4.70;98.00
947;DHT22;460;48.734;9.152;2022-12-07T11:43:54;4.70;97.60
947;DHT22;460;48.734;9.152;2022-12-07T11:46:24;4.70;97.80
947;DHT22;460;48.734;9.152;2022-12-07T11:48:58;4.70;97.50
947;DHT22;460;48.734;9.152;2022-12-07T11:51:28;4.70;97.70
947;DHT22;460;48.734;9.152;2022-12-07T11:54:01;4.70;97.80
947;DHT22;460;48.734;9.152;2022-12-07T11:56:30;4.70;97.60
947;DHT22;460;48.734;9.152;2022-12-07T11:59:06;4.70;97.60
947;DHT22;460;48.734;9.152;2022-12-07T12:01:42;4.80;98.20
947;DHT22;460;48.734;9.152;2022-12-07T12:04:25;4.90;98.30
947;DHT22;460;48.734;9.152;2022-12-07T12:06:53;4.90;98.10
947;DHT22;460;48.734;9.152;2022-12-07T12:09:26;4.90;98.20
947;DHT22;460;48.734;9.152;2022-12-07T12:15:02;4.80;98.30
947;DHT22;460;48.734;9.152;2022-12-07T12:17:56;4.80;98.40
947;DHT22;460;48.734;9.152;2022-12-07T12:20:29;4.80;98.80
947;DHT22;460;48.734;9.152;2022-12-07T12:23:01;4.70;98.40
947;DHT22;460;48.734;9.152;2022-12-07T12:25:39;4.70;99.90
947;DHT22;460;48.734;9.152;2022-12-07T12:28:20;4.70;98.90
947;DHT22;460;48.734;9.152;2022-12-07T12:31:05;4.60;99.00
947;DHT22;460;48.734;9.152;2022-12-07T12:33:33;4.50;99.20
947;DHT22;460;48.734;9.152;2022-12-07T12:36:19;4.50;99.60
947;DHT22;460;48.734;9.152;2022-12-07T12:38:50;4.50;99.80
947;DHT22;460;48.734;9.152;2022-12-07T12:47:57;4.50;99.90
947;DHT22;460;48.734;9.152;2022-12-07T12:50:30;4.50;99.90
947;DHT22;460;48.734;9.152;2022-12-07T12:53:03;4.40;99.90
947;DHT22;460;48.734;9.152;2022-12-07T12:56:12;4.30;99.90
947;DHT22;460;48.734;9.152;2022-12-07T12:58:43;4.30;99.90
947;DHT22;460;48.734;9.152;2022-12-07T13:01:45;4.30;99.90
947;DHT22;460;48.734;9.152;2022-12-07T13:04:37;4.30;99.90
947;DHT22;460;48.734;9.152;2022-12-07T13:07:11;4.20;99.90
947;DHT22;460;48.734;9.152;2022-12-07T13:09:43;4.20;99.90
947;DHT22;460;48.734;9.152;2022-12-07T13:12:13;4.20;99.90
947;DHT22;460;48.734;9.152;2022-12-07T13:14:58;4.20;99.90
947;DHT22;460;48.734;9.152;2022-12-07T13:18:01;4.20;99.90
947;DHT22;460;48.734;9.152;2022-12-07T13:20:55;4.30;99.90
947;DHT22;460;48.734;9.152;2022-12-07T13:23:31;4.40;99.90
947;DHT22;460;48.734;9.152;2022-12-07T13:26:15;4.30;99.90
947;DHT22;460;48.734;9.152;2022-12-07T13:28:45;4.20;99.90
947;DHT22;460;48.734;9.152;2022-12-07T13:31:30;4.40;99.90
947;DHT22;460;48.734;9.152;2022-12-07T13:34:00;4.30;99.90
947;DHT22;460;48.734;9.152;2022-12-07T13:36:30;4.40;99.90
947;DHT22;460;48.734;9.152;2022-12-07T13:39:15;4.50;99.90
947;DHT22;460;48.734;9.152;2022-12-07T13:41:43;4.50;99.90
947;DHT22;460;48.734;9.152;2022-12-07T13:44:12;4.40;99.90
947;DHT22;460;48.734;9.152;2022-12-07T13:46:49;4.40;99.90
947;DHT22;460;48.734;9.152;2022-12-07T13:49:21;4.30;99.90
947;DHT22;460;48.734;9.152;2022-12-07T13:51:49;4.30;99.90
947;DHT22;460;48.734;9.152;2022-12-07T13:54:17;4.30;99.90
947;DHT22;460;48.734;9.152;2022-12-07T13:56:46;4.40;99.90
947;DHT22;460;48.734;9.152;2022-12-07T13:59:16;4.50;99.90
947;DHT22;460;48.734;9.152;2022-12-07T14:01:45;4.50;99.90
947;DHT22;460;48.734;9.152;2022-12-07T14:04:32;4.40;99.90
947;DHT22;460;48.734;9.152;2022-12-07T14:07:00;4.40;99.90
947;DHT22;460;48.734;9.152;2022-12-07T14:09:29;4.40;99.90
947;DHT22;460;48.734;9.152;2022-12-07T14:11:57;4.20;99.50
947;DHT22;460;48.734;9.152;2022-12-07T14:14:26;4.20;99.40
947;DHT22;460;48.734;9.152;2022-12-07T14:16:59;4.10;99.40
947;DHT22;460;48.734;9.152;2022-12-07T14:19:43;4.10;99.80
947;DHT22;460;48.734;9.152;2022-12-07T14:22:23;4.10;99.70
947;DHT22;460;48.734;9.152;2022-12-07T14:24:51;4.10;99.60
947;DHT22;460;48.734;9.152;2022-12-07T14:27:19;4.10;99.90
947;DHT22;460;48.734;9.152;2022-12-07T14:29:46;4.10;99.80
947;DHT22;460;48.734;9.152;2022-12-07T14:32:19;4.10;99.70
947;DHT22;460;48.734;9.152;2022-12-07T14:35:00;4.10;99.90
947;DHT22;460;48.734;9.152;2022-12-07T14:37:28;4.10;99.90
947;DHT22;460;48.734;9.152;2022-12-07T14:39:55;4.10;99.90
947;DHT22;460;48.734;9.152;2022-12-07T14:42:26;4.10;99.80
947;DHT22;460;48.734;9.152;2022-12-07T14:44:53;4.10;99.60
947;DHT22;460;48.734;9.152;2022-12-07T14:47:20;4.10;99.50
947;DHT22;460;48.734;9.152;2022-12-07T14:49:47;4.20;99.90
947;DHT22;460;48.734;9.152;2022-12-07T14:52:18;4.10;99.80
947;DHT22;460;48.734;9.152;2022-12-07T14:54:46;4.10;99.90
947;DHT22;460;48.734;9.152;2022-12-07T14:57:12;4.10;99.90
947;DHT22;460;48.734;9.152;2022-12-07T14:59:39;4.10;99.90
947;DHT22;460;48.734;9.152;2022-12-07T15:02:09;4.10;99.90
947;DHT22;460;48.734;9.152;2022-12-07T15:04:37;4.00;99.90
947;DHT22;460;48.734;9.152;2022-12-07T15:07:08;4.00;99.90
947;DHT22;460;48.734;9.152;2022-12-07T15:09:37;4.00;99.90
947;DHT22;460;48.734;9.152;2022-12-07T15:12:04;4.00;99.90
947;DHT22;460;48.734;9.152;2022-12-07T15:14:31;4.10;99.90
947;DHT22;460;48.734;9.152;2022-12-07T15:16:57;4.10;99.90
947;DHT22;460;48.734;9.152;2022-12-07T15:19:24;4.20;99.90
947;DHT22;460;48.734;9.152;2022-12-07T15:21:52;4.10;99.90
947;DHT22;460;48.734;9.152;2022-12-07T15:24:20;4.10;99.90
947;DHT22;460;48.734;9.152;2022-12-07T15:26:48;4.10;99.90
947;DHT22;460;48.734;9.152;2022-12-07T15:29:15;4.00;99.90
947;DHT22;460;48.734;9.152;2022-12-07T15:31:42;4.00;99.90
947;DHT22;460;48.734;9.152;2022-12-07T15:34:09;4.00;99.90
947;DHT22;460;48.734;9.152;2022-12-07T15:36:36;3.90;99.90
947;DHT22;460;48.734;9.152;2022-12-07T15:39:03;3.90;99.90
947;DHT22;460;48.734;9.152;2022-12-07T15:41:29;3.70;99.90
947;DHT22;460;48.734;9.152;2022-12-07T15:43:58;3.70;99.90
947;DHT22;460;48.734;9.152;2022-12-07T15:46:42;3.70;99.90
947;DHT22;460;48.734;9.152;2022-12-07T15:49:14;3.60;99.90
947;DHT22;460;48.734;9.152;2022-12-07T15:51:42;3.60;99.90
947;DHT22;460;48.734;9.152;2022-12-07T15:54:13;3.70;99.90
947;DHT22;460;48.734;9.152;2022-12-07T15:56:40;3.60;99.90
947;DHT22;460;48.734;9.152;2022-12-07T15:59:08;3.60;99.90
947;DHT22;460;48.734;9.152;2022-12-07T16:01:35;3.60;99.90
947;DHT22;460;48.734;9.152;2022-12-07T16:04:01;3.60;99.90
947;DHT22;460;48.734;9.152;2022-12-07T16:06:28;3.50;99.90
947;DHT22;460;48.734;9.152;2022-12-07T16:08:55;3.40;99.90
947;DHT22;460;48.734;9.152;2022-12-07T16:11:22;3.30;99.90
947;DHT22;460;48.734;9.152;2022-12-07T16:13:49;3.30;99.90
947;DHT22;460;48.734;9.152;2022-12-07T16:16:18;3.20;99.90
947;DHT22;460;48.734;9.152;2022-12-07T16:18:47;3.20;99.90
947;DHT22;460;48.734;9.152;2022-12-07T16:21:14;3.20;99.90
947;DHT22;460;48.734;9.152;2022-12-07T16:23:42;3.20;99.90
947;DHT22;460;48.734;9.152;2022-12-07T16:26:13;3.10;99.90
947;DHT22;460;48.734;9.152;2022-12-07T16:28:40;3.20;99.90
947;DHT22;460;48.734;9.152;2022-12-07T16:31:09;3.20;99.90
947;DHT22;460;48.734;9.152;2022-12-07T16:33:38;3.10;99.90
947;DHT22;460;48.734;9.152;2022-12-07T16:36:07;3.00;99.90
947;DHT22;460;48.734;9.152;2022-12-07T16:38:35;3.10;99.90
947;DHT22;460;48.734;9.152;2022-12-07T16:41:02;3.00;99.90
947;DHT22;460;48.734;9.152;2022-12-07T16:43:29;3.00;99.90
947;DHT22;460;48.734;9.152;2022-12-07T16:45:56;3.00;99.90
947;DHT22;460;48.734;9.152;2022-12-07T16:48:23;3.00;99.90
947;DHT22;460;48.734;9.152;2022-12-07T16:50:51;2.90;99.90
947;DHT22;460;48.734;9.152;2022-12-07T16:53:20;3.50;99.90
947;DHT22;460;48.734;9.152;2022-12-07T16:55:47;2.90;99.90
947;DHT22;460;48.734;9.152;2022-12-07T16:58:15;2.90;99.90
947;DHT22;460;48.734;9.152;2022-12-07T17:00:43;2.90;99.90
947;DHT22;460;48.734;9.152;2022-12-07T17:03:10;2.90;99.90
947;DHT22;460;48.734;9.152;2022-12-07T17:05:38;2.90;99.90
947;DHT22;460;48.734;9.152;2022-12-07T17:08:06;2.70;99.90
947;DHT22;460;48.734;9.152;2022-12-07T17:10:34;2.80;99.90
947;DHT22;460;48.734;9.152;2022-12-07T17:13:01;2.90;99.90
947;DHT22;460;48.734;9.152;2022-12-07T17:15:55;2.80;99.90
947;DHT22;460;48.734;9.152;2022-12-07T17:18:21;2.80;99.90
947;DHT22;460;48.734;9.152;2022-12-07T17:20:48;2.70;99.90
947;DHT22;460;48.734;9.152;2022-12-07T17:23:16;2.70;99.90
947;DHT22;460;48.734;9.152;2022-12-07T17:25:43;2.70;99.90
947;DHT22;460;48.734;9.152;2022-12-07T17:28:10;2.70;99.90